^^
Datos históricos de la estación: Murcia-Puente Tocinos
Diario Informe para Agosto 13, 2020 Unidades:  Ingés    Métrico   Ambas
Diario Semanal Mensual Anual
  Máxima: Mínima: Promedio:
Temperatura: 95 °F 75.4 °F 84.4 °F
Punto de rocio: 70 °F 58.8 °F 65.3 °F
Humedad: 76% 32% 55%
Velocidad viento: 12.5mph 0mph 4.7mph
Racha viento: 21mph - -
Viento- - SSE
Presión: 29.9 in 29.8 in -
Precipitación: 0 in    
 
 
Tabla de datos para Agosto 13, 2020
Hora Temperatura Punto de rocio Presión Viento Velocidad viento Racha viento Humedad Intensidad lluvia(por hora) Nubes
00:04 81.3 °F 68.4 °F 29.9 in Este 2.9 mph 4.6 mph 65% 0 in
00:09 81.3 °F 68.4 °F 29.9 in Este 2.9 mph 5 mph 65% 0 in
00:14 81.3 °F 68.4 °F 29.9 in ENE 2.9 mph 5.2 mph 65% 0 in
00:19 81.3 °F 68.7 °F 29.9 in NE 2.9 mph 5 mph 65.6% 0 in
00:24 81.1 °F 68.7 °F 29.9 in NE 2.9 mph 5.8 mph 66% 0 in
00:29 81 °F 68.5 °F 29.9 in ENE 2.9 mph 6 mph 66% 0 in
00:34 81 °F 68.5 °F 29.9 in Este 2.9 mph 5 mph 66% 0 in
00:39 80.8 °F 68.7 °F 29.9 in NE 3.1 mph 5.2 mph 66.6% 0 in
00:44 80.8 °F 68.7 °F 29.9 in NE 3 mph 6.2 mph 67% 0 in
00:49 80.6 °F 68.7 °F 29.9 in NNE 2.9 mph 6 mph 67% 0 in
00:54 80.6 °F 68.7 °F 29.9 in NNE 2.7 mph 3.5 mph 67% 0 in
00:59 80.6 °F 68.2 °F 29.9 in ESE 1.8 mph 5.2 mph 66.1% 0 in
01:04 80.6 °F 68.2 °F 29.9 in ESE 1.8 mph 5 mph 66% 0 in
01:09 80.6 °F 68.4 °F 29.9 in NNE 2 mph 5.2 mph 66.5% 0 in
01:14 80.2 °F 68.9 °F 29.9 in NNO 2.2 mph 6.2 mph 68.5% 0 in
01:19 79.9 °F 69.1 °F 29.9 in NNO 3.1 mph 6 mph 69.7% 0 in
01:24 79.5 °F 69.3 °F 29.9 in North 3 mph 5.4 mph 70.7% 0 in
01:29 79.3 °F 69.4 °F 29.9 in North 2.4 mph 7.4 mph 71.8% 0 in
01:34 79 °F 69.6 °F 29.9 in NNE 2.7 mph 7 mph 72.9% 0 in
01:39 78.8 °F 69.6 °F 29.9 in NNO 4 mph 5.2 mph 73.6% 0 in
01:44 78.6 °F 69.6 °F 29.9 in NE 3.6 mph 5 mph 74% 0 in
01:49 78.6 °F 69.6 °F 29.9 in NNE 2 mph 4 mph 74% 0 in
01:54 78.6 °F 69.6 °F 29.9 in NO 2.1 mph 4.6 mph 74% 0 in
01:59 78.6 °F 69.6 °F 29.9 in NNO 2.4 mph 5 mph 74.2% 0 in
02:04 78.6 °F 70 °F 29.9 in NNO 2.2 mph 3 mph 74.9% 0 in
02:09 78.4 °F 69.6 °F 29.9 in NNO 1.4 mph 3 mph 74.1% 0 in
02:14 78.4 °F 69.8 °F 29.9 in North 1.4 mph 4.6 mph 74.8% 0 in
02:19 78.4 °F 70 °F 29.9 in NNE 1.8 mph 5 mph 75% 0 in
02:24 78.4 °F 69.8 °F 29.9 in Este 1.9 mph 5 mph 74.9% 0 in
02:29 78.4 °F 69.4 °F 29.9 in Este 2 mph 3 mph 74% 0 in
02:34 78.3 °F 68.9 °F 29.9 in Este 1.7 mph 2.4 mph 73% 0 in
02:39 78.3 °F 68.9 °F 29.9 in Calm   2.4 mph 73% 0 in
02:44 78.3 °F 68.9 °F 29.9 in Calm   2 mph 73% 0 in
02:49 78.3 °F 68.9 °F 29.9 in Calm   3.1 mph 73% 0 in
02:54 78.3 °F 69.3 °F 29.9 in NO 0.3 mph 3.6 mph 73.9% 0 in
02:59 78.3 °F 69.3 °F 29.9 in NO 1.8 mph 4 mph 74% 0 in
03:04 78.1 °F 69.4 °F 29.9 in NO 1.9 mph 4 mph 75% 0 in
03:09 77.9 °F 69.4 °F 29.9 in NO 2 mph 4 mph 75% 0 in
03:14 77.7 °F 69.4 °F 29.9 in NO 1.9 mph 3 mph 75.5% 0 in
03:19 77.7 °F 69.4 °F 29.9 in NO 1.4 mph 3.5 mph 76% 0 in
03:24 77.7 °F 69.4 °F 29.9 in NO 1.5 mph 3.5 mph 76% 0 in
03:29 77.5 °F 69.4 °F 29.9 in NNO 1.8 mph 3 mph 76% 0 in
03:34 77.5 °F 69.4 °F 29.9 in NNO 1.7 mph 3 mph 76% 0 in
03:39 77.5 °F 69.4 °F 29.9 in NE 1.4 mph 4.6 mph 76% 0 in
03:44 77.7 °F 69.4 °F 29.9 in Este 1.5 mph 5 mph 76% 0 in
03:49 77.5 °F 69.4 °F 29.9 in Este 2 mph 5.2 mph 75.9% 0 in
03:54 77.4 °F 68.7 °F 29.9 in ESE 2.1 mph 5 mph 74.8% 0 in
03:59 77.2 °F 68.5 °F 29.9 in ESE 2.4 mph 5 mph 74.8% 0 in
04:04 76.8 °F 67.8 °F 29.9 in SE 2.4 mph 4.7 mph 73.6% 0 in
04:09 76.8 °F 66.7 °F 29.9 in SSE 2.4 mph 5 mph 71.3% 0 in
04:14 76.8 °F 66.7 °F 29.9 in SSE 2.3 mph 5 mph 71% 0 in
04:19 77.2 °F 66.9 °F 29.9 in SO 2 mph 3 mph 71% 0 in
04:24 77.4 °F 67.1 °F 29.9 in OSO 2 mph 3.5 mph 71% 0 in
04:29 77.5 °F 67.1 °F 29.9 in OSO 1.8 mph 3.6 mph 70.5% 0 in
04:34 77.5 °F 66.9 °F 29.9 in OSO 1.8 mph 4 mph 70% 0 in
04:39 77.5 °F 67.1 °F 29.9 in SO 1.8 mph 3.5 mph 70.2% 0 in
04:44 77.5 °F 66.9 °F 29.9 in SSO 1.8 mph 4.6 mph 69.8% 0 in
04:49 77.5 °F 66.4 °F 29.9 in Sur 1.8 mph 5 mph 68.5% 0 in
04:54 77.5 °F 65.8 °F 29.9 in SSE 2.1 mph 6.2 mph 67.3% 0 in
04:59 77.4 °F 65.3 °F 29.9 in SSE 3.1 mph 8.1 mph 66.4% 0 in
05:04 77.4 °F 65.1 °F 29.9 in Sur 3.4 mph 8 mph 66% 0 in
05:09 77.4 °F 65.1 °F 29.9 in SSE 4.7 mph 7 mph 66% 0 in
05:14 77.2 °F 65.3 °F 29.9 in SSE 4.6 mph 6.2 mph 66.6% 0 in
05:19 77.2 °F 65.3 °F 29.9 in Sur 4 mph 6 mph 67% 0 in
05:24 77 °F 65.1 °F 29.9 in SE 4 mph 6.2 mph 67% 0 in
05:29 76.8 °F 64.9 °F 29.9 in SSE 4 mph 6 mph 67% 0 in
05:34 76.6 °F 65.3 °F 29.9 in SSO 4 mph 6 mph 67.9% 0 in
05:39 76.6 °F 65.3 °F 29.9 in SO 4 mph 6.9 mph 68% 0 in
05:44 76.8 °F 65.5 °F 29.9 in SO 3.9 mph 5.8 mph 68% 0 in
05:49 76.6 °F 65.5 °F 29.9 in SO 3.1 mph 5.8 mph 68% 0 in
05:54 76.6 °F 65.3 °F 29.9 in SO 3.1 mph 6 mph 68% 0 in
05:59 76.6 °F 65.3 °F 29.9 in SO 3.1 mph 5 mph 68% 0 in
06:04 76.6 °F 65.5 °F 29.9 in SO 3 mph 6.2 mph 68.4% 0 in
06:09 76.5 °F 65.5 °F 29.9 in SSO 2.9 mph 6 mph 69% 0 in
06:14 76.5 °F 65.7 °F 29.9 in Sur 2.9 mph 6 mph 69.2% 0 in
06:19 76.5 °F 65.8 °F 29.9 in Sur 2.9 mph 5.2 mph 70% 0 in
06:24 76.5 °F 65.8 °F 29.9 in SSE 2.9 mph 5 mph 69.9% 0 in
06:29 76.3 °F 65.5 °F 29.9 in SE 2.9 mph 6.4 mph 69% 0 in
06:34 76.3 °F 65.7 °F 29.9 in SE 3.1 mph 7.4 mph 69.5% 0 in
06:39 75.9 °F 65.5 °F 29.9 in SSE 4.3 mph 8.1 mph 70% 0 in
06:44 75.7 °F 65.3 °F 29.9 in Sur 4.2 mph 8 mph 70% 0 in
06:49 75.6 °F 65.1 °F 29.9 in SSE 4 mph 6.9 mph 70% 0 in
06:54 75.6 °F 65.1 °F 29.9 in SE 4 mph 7 mph 70% 0 in
06:59 75.4 °F 64.9 °F 29.9 in SSE 4 mph 6 mph 70% 0 in
07:04 75.4 °F 64.9 °F 29.9 in Sur 3.7 mph 5 mph 70% 0 in
07:09 75.6 °F 65.1 °F 29.9 in SSO 2.4 mph 5 mph 70% 0 in
07:14 75.7 °F 65.3 °F 29.9 in OSO 2.4 mph 5 mph 70% 0 in
07:19 75.7 °F 65.3 °F 29.9 in Oeste 2.4 mph 5 mph 70% 0 in
07:24 75.7 °F 65.3 °F 29.9 in Oeste 2.4 mph 5.2 mph 70% 0 in
07:29 75.7 °F 65.3 °F 29.9 in Oeste 2.4 mph 5 mph 70% 0 in
07:34 75.7 °F 65.7 °F 29.9 in Oeste 2.3 mph 5 mph 71% 0 in
07:39 75.7 °F 65.7 °F 29.9 in ONO 1.8 mph 3.5 mph 71% 0 in
07:44 75.7 °F 65.7 °F 29.9 in ONO 1.4 mph 3 mph 71% 0 in
07:49 75.7 °F 65.7 °F 29.9 in Calm   2.3 mph 71% 0 in
07:54 75.7 °F 65.7 °F 29.9 in Calm   2.9 mph 71% 0 in
07:59 75.7 °F 65.7 °F 29.9 in Calm   3.6 mph 71% 0 in
08:04 75.7 °F 65.7 °F 29.9 in ENE 0.3 mph 4 mph 70.8% 0 in
08:09 75.9 °F 65.5 °F 29.9 in ENE 1.8 mph 3.6 mph 70% 0 in
08:14 75.9 °F 65.5 °F 29.9 in ENE 1.9 mph 4 mph 70% 0 in
08:19 76.3 °F 65.7 °F 29.9 in ESE 2 mph 4.6 mph 70% 0 in
08:24 76.5 °F 65.8 °F 29.9 in SSE 2.2 mph 5 mph 70% 0 in
08:29 76.6 °F 65.7 °F 29.9 in SSE 3.1 mph 5 mph 69.3% 0 in
08:34 76.8 °F 65.8 °F 29.9 in Sur 3.1 mph 5.9 mph 68.8% 0 in
08:39 77.2 °F 65.8 °F 29.9 in SSO 3.1 mph 6.2 mph 68% 0 in
08:44 77.5 °F 65.7 °F 29.9 in SO 3.1 mph 6 mph 67.2% 0 in
08:49 77.9 °F 65.7 °F 29.9 in OSO 3.1 mph 5.2 mph 66.3% 0 in
08:54 78.3 °F 65.7 °F 29.9 in SO 3 mph 5.9 mph 65.3% 0 in
08:59 78.4 °F 65.7 °F 29.9 in SSO 2.4 mph 5.2 mph 64.7% 0 in
09:04 78.6 °F 65.7 °F 29.9 in SSO 2.5 mph 5.9 mph 64.3% 0 in
09:09 79 °F 65.7 °F 29.9 in SO 3.1 mph 6 mph 64% 0 in
09:14 79.2 °F 65.8 °F 29.9 in SO 3.1 mph 6.4 mph 64.2% 0 in
09:19 79.2 °F 65.8 °F 29.9 in OSO 3.1 mph 8.7 mph 63.7% 0 in
09:24 79.2 °F 65.5 °F 29.9 in SO 3.3 mph 9.2 mph 63% 0 in
09:29 79.2 °F 65.5 °F 29.9 in OSO 4.3 mph 9 mph 63% 0 in
09:34 79.5 °F 65.7 °F 29.9 in OSO 3.9 mph 6 mph 62.9% 0 in
09:39 79.9 °F 65.8 °F 29.9 in SSO 2.4 mph 5.8 mph 62.2% 0 in
09:44 80.1 °F 65.8 °F 29.9 in SSO 2.6 mph 6.2 mph 62% 0 in
09:49 79.9 °F 65.8 °F 29.9 in SSO 3.6 mph 8.1 mph 62% 0 in
09:54 79.9 °F 65.7 °F 29.9 in SO 3.7 mph 8 mph 62% 0 in
09:59 80.1 °F 65.8 °F 29.9 in OSO 4 mph 6.2 mph 62% 0 in
10:04 80.2 °F 65.8 °F 29.9 in SO 4 mph 6.9 mph 61.6% 0 in
10:09 80.4 °F 65.8 °F 29.9 in SO 4 mph 7 mph 61.5% 0 in
10:14 80.6 °F 66.2 °F 29.9 in OSO 4 mph 8.1 mph 61.4% 0 in
10:19 81 °F 66.2 °F 29.9 in OSO 4 mph 8 mph 61% 0 in
10:24 81.1 °F 66.4 °F 29.9 in SO 3.9 mph 7 mph 61% 0 in
10:29 81.7 °F 66.4 °F 29.9 in OSO 3.1 mph 6.9 mph 60.1% 0 in
10:34 82 °F 66.6 °F 29.9 in SO 3 mph 7 mph 59.6% 0 in
10:39 82.4 °F 66.2 °F 29.9 in SO 2.9 mph 6.9 mph 58.2% 0 in
10:44 82.6 °F 66.2 °F 29.9 in Sur 3 mph 7 mph 58% 0 in
10:49 82.8 °F 66.4 °F 29.9 in SO 3.6 mph 7 mph 57.8% 0 in
10:54 82.9 °F 66.2 °F 29.9 in SSO 3.7 mph 8.5 mph 57.2% 0 in
10:59 83.1 °F 66.2 °F 29.9 in Oeste 4.3 mph 8.1 mph 57% 0 in
11:04 83.3 °F 66.6 °F 29.9 in Oeste 4.2 mph 7 mph 57% 0 in
11:09 83.7 °F 66.6 °F 29.9 in Oeste 3.6 mph 7 mph 56.4% 0 in
11:14 84 °F 66.4 °F 29.9 in OSO 3.5 mph 7 mph 55.6% 0 in
11:19 84.6 °F 65.8 °F 29.9 in Oeste 2.9 mph 6 mph 53.5% 0 in
11:24 85.1 °F 66 °F 29.9 in SO 3 mph 6.9 mph 52.9% 0 in
11:29 85.3 °F 66 °F 29.9 in SSO 4 mph 7.6 mph 52.5% 0 in
11:34 85.5 °F 65.3 °F 29.9 in Sur 4.1 mph 8.1 mph 51.2% 0 in
11:39 85.6 °F 65.7 °F 29.9 in SSE 4.3 mph 8 mph 51.5% 0 in
11:44 86 °F 65.1 °F 29.9 in ESE 4.3 mph 7 mph 49.9% 0 in
11:49 86.5 °F 64.6 °F 29.9 in ONO 4 mph 7 mph 48.1% 0 in
11:54 86.9 °F 64.9 °F 29.9 in Sur 3.9 mph 6.2 mph 48% 0 in
11:59 87.3 °F 64.9 °F 29.9 in SO 3.6 mph 6.2 mph 47.7% 0 in
12:04 87.4 °F 64.2 °F 29.9 in SO 3.7 mph 6.9 mph 46.4% 0 in
12:09 87.6 °F 63.7 °F 29.9 in North 4 mph 7 mph 45.2% 0 in
12:14 88 °F 64 °F 29.9 in NO 3.8 mph 8.1 mph 45% 0 in
12:19 88.3 °F 64.4 °F 29.9 in NNE 2.9 mph 8.5 mph 44.9% 0 in
12:24 88.9 °F 64.2 °F 29.9 in Sur 2.9 mph 9 mph 44% 0 in
12:29 89.2 °F 64 °F 29.9 in SE 3.1 mph 10.7 mph 43.3% 0 in
12:34 89.6 °F 63.7 °F 29.9 in ONO 3.3 mph 11 mph 42.3% 0 in
12:39 90 °F 63.5 °F 29.9 in SE 4.3 mph 10 mph 41.7% 0 in
12:44 90 °F 63.3 °F 29.9 in SE 4.2 mph 8.1 mph 41.4% 0 in
12:49 90 °F 63.3 °F 29.9 in SE 4 mph 8.1 mph 41.4% 0 in
12:54 89.8 °F 63.7 °F 29.9 in Este 4.2 mph 8.1 mph 41.9% 0 in
12:59 90.1 °F 63.3 °F 29.9 in Este 4.7 mph 8.1 mph 41% 0 in
13:04 90.1 °F 63.1 °F 29.9 in SSE 4.7 mph 8.5 mph 40.7% 0 in
13:09 90.1 °F 63 °F 29.9 in ENE 4.7 mph 9 mph 40.6% 0 in
13:14 90.3 °F 63 °F 29.9 in North 4.3 mph 6.2 mph 40.1% 0 in
13:19 90.9 °F 63.1 °F 29.9 in ENE 2.4 mph 7.4 mph 39.9% 0 in
13:24 91 °F 61.9 °F 29.9 in NE 2.7 mph 8.5 mph 38% 0 in
13:29 91 °F 60.1 °F 29.9 in NO 4 mph 3.6 mph 35.4% 0 in
13:34 91.6 °F 60.8 °F 29.9 in SSE 3.8 mph 6.9 mph 36% 0 in
13:39 91.8 °F 61 °F 29.9 in Este 2.9 mph 7.4 mph 36% 0 in
13:44 91.8 °F 60.3 °F 29.9 in ESE 3.2 mph 7 mph 35.2% 0 in
13:49 91.9 °F 60.8 °F 29.9 in SSE 4.7 mph 7 mph 35.4% 0 in
13:54 92.5 °F 61.2 °F 29.9 in NE 4.5 mph 8.5 mph 35.4% 0 in
13:59 92.5 °F 60.8 °F 29.9 in NNE 3.6 mph 9 mph 34.9% 0 in
14:04 92.8 °F 60.6 °F 29.9 in ONO 3.6 mph 9.2 mph 34.4% 0 in
14:09 92.8 °F 59.5 °F 29.9 in ONO 3.6 mph 9 mph 33% 0 in
14:14 93.4 °F 59.4 °F 29.9 in ONO 3.7 mph 9.2 mph 32.2% 0 in
14:19 93.6 °F 59.4 °F 29.9 in NO 4.3 mph 9.2 mph 32% 0 in
14:24 93.6 °F 59.2 °F 29.9 in Oeste 4.3 mph 8 mph 32% 0 in
14:29 93.7 °F 59.4 °F 29.9 in SSO 4 mph 8.5 mph 32% 0 in
14:34 94.1 °F 60.3 °F 29.9 in NO 4.2 mph 9.7 mph 32.5% 0 in
14:39 94.1 °F 59.9 °F 29.9 in NNE 4.7 mph 10 mph 32.2% 0 in
14:44 94.1 °F 59.7 °F 29.9 in NNE 4.6 mph 9 mph 32.1% 0 in
14:49 93.9 °F 59.7 °F 29.9 in NO 4 mph 8 mph 32% 0 in
14:54 94.3 °F 59.9 °F 29.9 in NNO 3.9 mph 7.4 mph 32% 0 in
14:59 94.5 °F 60.1 °F 29.9 in NNO 3.1 mph 7 mph 32.1% 0 in
15:04 94.8 °F 60.4 °F 29.9 in NNE 3.4 mph 13.8 mph 32.1% 0 in
15:09 95 °F 60.6 °F 29.9 in North 4.7 mph 14 mph 32% 0 in
15:14 95 °F 60.6 °F 29.9 in NNE 5 mph 13.8 mph 32.1% 0 in
15:19 94.6 °F 62.2 °F 29.9 in Este 6.2 mph 14 mph 34.4% 0 in
15:24 94.8 °F 64.4 °F 29.9 in ESE 5.9 mph 15.9 mph 37% 0 in
15:29 94.3 °F 67.1 °F 29.9 in ESE 4.7 mph 16.1 mph 41.2% 0 in
15:34 93.7 °F 67.6 °F 29.9 in Este 5.8 mph 20.7 mph 42.7% 0 in
15:39 92.8 °F 67.6 °F 29.9 in ESE 11.8 mph 21 mph 43.8% 0 in
15:44 92.8 °F 67.6 °F 29.8 in ESE 11.9 mph 20 mph 44% 0 in
15:49 92.7 °F 67.3 °F 29.8 in ESE 12.5 mph 19 mph 43.6% 0 in
15:54 93 °F 67.3 °F 29.8 in Este 12 mph 18 mph 43% 0 in
15:59 93 °F 67.1 °F 29.8 in Este 9.7 mph 16.1 mph 42.9% 0 in
16:04 93.2 °F 67.3 °F 29.8 in ESE 9.7 mph 19.7 mph 42.8% 0 in
16:09 93.6 °F 66.9 °F 29.8 in ESE 9.7 mph 20 mph 42% 0 in
16:14 93.6 °F 67.1 °F 29.8 in ESE 9.7 mph 17.3 mph 42.2% 0 in
16:19 93.7 °F 66.6 °F 29.8 in SE 9.7 mph 17.3 mph 41.3% 0 in
16:24 93.4 °F 66.4 °F 29.8 in ESE 9.6 mph 17.3 mph 41.1% 0 in
16:29 93.6 °F 66.9 °F 29.8 in ESE 9.2 mph 17 mph 41.9% 0 in
16:34 93.9 °F 66.7 °F 29.8 in SE 9.3 mph 17.3 mph 41.3% 0 in
16:39 93.9 °F 66.7 °F 29.8 in SE 9.7 mph 17 mph 41.4% 0 in
16:44 94.1 °F 67.5 °F 29.8 in ESE 9.5 mph 16.1 mph 42.1% 0 in
16:49 93.7 °F 67.6 °F 29.8 in ESE 8.7 mph 19.6 mph 42.7% 0 in
16:54 93.6 °F 68.5 °F 29.8 in ESE 8.9 mph 20 mph 44.3% 0 in
16:59 93.4 °F 68.7 °F 29.8 in ESE 10.2 mph 17.3 mph 44.6% 0 in
17:04 93.6 °F 68.2 °F 29.8 in ESE 10.2 mph 18.4 mph 43.7% 0 in
17:09 93.6 °F 68.2 °F 29.8 in ESE 10 mph 18 mph 43.8% 0 in
17:14 93.6 °F 68.7 °F 29.8 in ESE 10.1 mph 17.3 mph 44.6% 0 in
17:19 93.4 °F 68.2 °F 29.8 in ESE 10.7 mph 19.6 mph 43.9% 0 in
17:24 93.2 °F 67.8 °F 29.8 in SE 10.7 mph 20 mph 43.7% 0 in
17:29 93.2 °F 68.2 °F 29.8 in ESE 10.7 mph 16 mph 44.3% 0 in
17:34 93.4 °F 68.2 °F 29.8 in ESE 10.6 mph 17.3 mph 44% 0 in
17:39 93 °F 67.3 °F 29.8 in ESE 10.2 mph 17 mph 43% 0 in
17:44 93 °F 67.3 °F 29.8 in ESE 10.2 mph 15.2 mph 43% 0 in
17:49 93.2 °F 67.1 °F 29.8 in ESE 10 mph 15 mph 42.6% 0 in
17:54 93.4 °F 67.3 °F 29.8 in ESE 9.8 mph 14 mph 42.5% 0 in
17:59 93.2 °F 67.1 °F 29.8 in ESE 9.2 mph 17 mph 42.6% 0 in
18:04 93.2 °F 66.7 °F 29.8 in ESE 9.2 mph 17 mph 42% 0 in
18:09 93.6 °F 66.4 °F 29.8 in ESE 9.2 mph 13 mph 41% 0 in
18:14 93.6 °F 66.4 °F 29.8 in SE 9 mph 13 mph 41% 0 in
18:19 93.7 °F 66.4 °F 29.8 in ESE 8.1 mph 13 mph 41.1% 0 in
18:24 93.9 °F 66.7 °F 29.8 in ESE 7.8 mph 13 mph 41% 0 in
18:29 94.1 °F 66.2 °F 29.8 in ESE 6.4 mph 13 mph 40.1% 0 in
18:34 93.9 °F 66 °F 29.8 in ESE 6.8 mph 15.2 mph 40.1% 0 in
18:39 93.7 °F 65.7 °F 29.8 in SE 8.5 mph 15 mph 39.9% 0 in
18:44 93.6 °F 65.3 °F 29.8 in SE 8.5 mph 14 mph 39.6% 0 in
18:49 93.6 °F 65.3 °F 29.8 in ESE 8.7 mph 14 mph 39.4% 0 in
18:54 93.7 °F 65.1 °F 29.8 in ESE 8.5 mph 13 mph 39.3% 0 in
18:59 93.7 °F 65.1 °F 29.8 in SE 7.6 mph 13.8 mph 39.1% 0 in
19:04 93.6 °F 64.9 °F 29.8 in SE 7.6 mph 14 mph 39% 0 in
19:09 93.4 °F 64.8 °F 29.8 in SE 7.6 mph 13.8 mph 39% 0 in
19:14 93.4 °F 64.6 °F 29.8 in ESE 7.6 mph 14 mph 38.9% 0 in
19:19 93.4 °F 64.6 °F 29.8 in ESE 7.4 mph 13 mph 38.9% 0 in
19:24 93.4 °F 64.4 °F 29.8 in ESE 7.5 mph 12 mph 38.7% 0 in
19:29 93 °F 64.4 °F 29.8 in ESE 7.6 mph 12 mph 39% 0 in
19:34 93 °F 64.2 °F 29.8 in ESE 7.5 mph 13 mph 38.7% 0 in
19:39 93 °F 63.7 °F 29.8 in ESE 6.9 mph 13 mph 38% 0 in
19:44 92.8 °F 63.5 °F 29.8 in ESE 6.8 mph 10.4 mph 38% 0 in
19:49 92.8 °F 63.5 °F 29.8 in ESE 6.4 mph 10.7 mph 38.1% 0 in
19:54 92.8 °F 63.3 °F 29.8 in ESE 6.3 mph 11 mph 37.9% 0 in
19:59 92.8 °F 62.8 °F 29.8 in ESE 5.9 mph 9.2 mph 37.2% 0 in
20:04 92.7 °F 62.6 °F 29.8 in ESE 5.8 mph 9 mph 37% 0 in
20:09 92.7 °F 62.6 °F 29.8 in ESE 5.4 mph 9 mph 37% 0 in
20:14 92.5 °F 62.4 °F 29.8 in ESE 5.4 mph 8.1 mph 37% 0 in
20:19 92.1 °F 62.2 °F 29.8 in Este 5.4 mph 8.5 mph 37% 0 in
20:24 91.9 °F 61.7 °F 29.8 in Este 5.4 mph 9.2 mph 36.8% 0 in
20:29 91.8 °F 61.5 °F 29.8 in NE 5.4 mph 9 mph 36.7% 0 in
20:34 91.4 °F 62.2 °F 29.8 in NNE 5.4 mph 14.5 mph 38% 0 in
20:39 89.6 °F 61.5 °F 29.8 in NNE 5.4 mph 15 mph 39.2% 0 in
20:44 88.5 °F 60.8 °F 29.8 in NNE 6.1 mph 15 mph 39.7% 0 in
20:49 87.6 °F 59.7 °F 29.8 in NNE 8.7 mph 16.8 mph 39.1% 0 in
20:54 87.3 °F 59.2 °F 29.8 in NNE 8.9 mph 17.3 mph 39.1% 0 in
20:59 86.7 °F 58.8 °F 29.8 in NNE 9.7 mph 17.5 mph 39% 0 in
21:04 86.4 °F 58.8 °F 29.8 in NNE 9.4 mph 17 mph 39.5% 0 in
21:09 86.2 °F 59 °F 29.8 in NNE 8.5 mph 13 mph 40% 0 in
21:14 85.8 °F 59.4 °F 29.8 in NNE 8.3 mph 12 mph 40.9% 0 in
21:19 85.6 °F 59.5 °F 29.8 in NNE 7.4 mph 12 mph 41.5% 0 in
21:24 85.3 °F 59.7 °F 29.9 in NNE 7.4 mph 13.8 mph 42.4% 0 in
21:29 84.7 °F 60.4 °F 29.9 in NNE 7.4 mph 14 mph 43.9% 0 in
21:34 84.7 °F 61.2 °F 29.9 in NNE 7.5 mph 13 mph 45.3% 0 in
21:39 84.4 °F 61.3 °F 29.9 in NNE 7.6 mph 12.7 mph 46.1% 0 in
21:44 84.2 °F 61.7 °F 29.9 in NNE 7.6 mph 13.8 mph 47% 0 in
21:49 84 °F 61.7 °F 29.9 in NNE 7.6 mph 14 mph 47.3% 0 in
21:54 83.8 °F 62.1 °F 29.9 in NNE 7.3 mph 10.4 mph 48% 0 in
21:59 83.7 °F 62.2 °F 29.9 in NE 5.9 mph 11.5 mph 48.6% 0 in
22:04 83.5 °F 62.4 °F 29.9 in NNE 6.2 mph 12 mph 49% 0 in
22:09 83.3 °F 62.6 °F 29.9 in NNE 7.4 mph 11 mph 49.7% 0 in
22:14 82.9 °F 62.4 °F 29.9 in NNE 7.1 mph 10 mph 49.9% 0 in
22:19 82.9 °F 62.2 °F 29.9 in NNE 6.2 mph 10 mph 49.6% 0 in
22:24 82.9 °F 62.8 °F 29.9 in NNE 6.2 mph 9.2 mph 50.7% 0 in
22:29 82.6 °F 63 °F 29.9 in NNE 6.2 mph 9.7 mph 51.7% 0 in
22:34 82 °F 62.8 °F 29.9 in NNE 6.2 mph 9.2 mph 52% 0 in
22:39 82 °F 63 °F 29.9 in North 5.9 mph 9 mph 52.7% 0 in
22:44 81.9 °F 63 °F 29.9 in NNE 5.8 mph 9 mph 53% 0 in
22:49 81.5 °F 62.8 °F 29.9 in North 5.4 mph 8 mph 53% 0 in
22:54 81.3 °F 62.6 °F 29.9 in NNO 5.1 mph 6 mph 53% 0 in
22:59 81.3 °F 62.8 °F 29.9 in NNE 4 mph 9.2 mph 53.4% 0 in
23:04 81.1 °F 63.7 °F 29.9 in NNE 4.3 mph 9.2 mph 55.6% 0 in
23:09 81 °F 64.8 °F 29.9 in NNE 5.2 mph 9.7 mph 58.3% 0 in
23:14 80.4 °F 65.8 °F 29.9 in NNE 5.4 mph 10.7 mph 61.1% 0 in
23:19 80.2 °F 66 °F 29.9 in NNE 6.4 mph 11 mph 62.3% 0 in
23:24 80.1 °F 66.4 °F 29.9 in North 6.2 mph 9 mph 63.2% 0 in
23:29 79.9 °F 66.6 °F 29.9 in North 5.4 mph 10.7 mph 64% 0 in
23:34 79.9 °F 66.4 °F 29.9 in NNE 5.5 mph 11 mph 63.6% 0 in
23:39 79.9 °F 66.4 °F 29.9 in NNE 5.9 mph 11 mph 63.5% 0 in
23:44 79.7 °F 67.1 °F 29.9 in NNE 6 mph 10.4 mph 65.5% 0 in
23:49 79.5 °F 67.5 °F 29.9 in NNE 6.4 mph 10.4 mph 66.5% 0 in
23:54 79.3 °F 68 °F 29.9 in NNE 6.3 mph 10.4 mph 68.3% 0 in
23:59 79.2 °F 68.4 °F 29.9 in NNE 6.2 mph 10 mph 69.5% 0 in
Murcia-Puente Tocinos, España
Compliments of Weather Underground - 3 mb

La estación de MeteoMurcia.com, publica sus datos en los siguientes proyectos:

Weather Underground PWS IMURCIAP2 Meteoclimatic www.awekas.at

W3Counter
Web Analytics